createdAt,value
2018-09-20T00:01:35.710Z,14.00
2018-09-20T00:04:03.917Z,14.43
2018-09-20T00:06:32.191Z,12.70
2018-09-20T00:09:01.102Z,14.63
2018-09-20T00:11:29.273Z,13.37
2018-09-20T00:13:57.503Z,12.57
2018-09-20T00:16:25.774Z,11.03
2018-09-20T00:18:54.134Z,10.53
2018-09-20T00:21:22.407Z,13.23
2018-09-20T00:23:50.637Z,12.63
2018-09-20T00:26:18.906Z,10.40
2018-09-20T00:28:47.133Z,10.13
2018-09-20T00:31:15.347Z,13.63
2018-09-20T00:33:43.533Z,10.70
2018-09-20T00:36:12.834Z,10.70
2018-09-20T00:38:41.110Z,11.00
2018-09-20T00:41:09.342Z,11.67
2018-09-20T00:43:37.610Z,10.37
2018-09-20T00:46:06.250Z,10.53
2018-09-20T00:48:34.517Z,10.40
2018-09-20T00:51:02.753Z,10.47
2018-09-20T00:53:30.990Z,9.80
2018-09-20T00:55:59.254Z,11.50
2018-09-20T00:58:27.534Z,9.07
2018-09-20T01:00:55.799Z,11.50
2018-09-20T01:03:24.039Z,12.67
2018-09-20T01:05:52.259Z,10.50
2018-09-20T01:08:20.553Z,9.90
2018-09-20T01:10:48.823Z,9.40
2018-09-20T01:13:17.093Z,10.70
2018-09-20T01:15:45.422Z,9.87
2018-09-20T01:18:13.618Z,10.30
2018-09-20T01:20:41.838Z,11.33
2018-09-20T01:23:10.131Z,10.90
2018-09-20T01:25:38.324Z,9.70
2018-09-20T01:28:06.495Z,9.73
2018-09-20T01:30:34.721Z,10.80
2018-09-20T01:33:02.885Z,10.63
2018-09-20T01:35:31.235Z,8.83
2018-09-20T01:37:59.401Z,9.83
2018-09-20T01:40:27.573Z,8.43
2018-09-20T01:42:56.273Z,11.60
2018-09-20T01:45:24.461Z,8.97
2018-09-20T01:47:52.642Z,10.73
2018-09-20T01:50:20.827Z,10.10
2018-09-20T01:52:49.824Z,9.73
2018-09-20T01:55:18.000Z,10.87
2018-09-20T01:57:46.243Z,8.90
2018-09-20T02:00:14.469Z,10.67
2018-09-20T02:02:42.694Z,8.80
2018-09-20T02:05:10.956Z,8.77
2018-09-20T02:07:39.222Z,9.57
2018-09-20T02:10:07.428Z,11.17
2018-09-20T02:12:35.701Z,11.53
2018-09-20T02:15:03.898Z,10.43
2018-09-20T02:17:32.163Z,11.73
2018-09-20T02:20:00.441Z,14.37
2018-09-20T02:22:28.678Z,10.80
2018-09-20T02:24:56.866Z,10.17
2018-09-20T02:27:25.070Z,9.10
2018-09-20T02:29:53.376Z,12.70
2018-09-20T02:32:21.604Z,10.33
2018-09-20T02:34:56.125Z,15.10
2018-09-20T02:37:24.350Z,10.13
2018-09-20T02:39:52.564Z,9.67
2018-09-20T02:42:20.749Z,10.53
2018-09-20T02:44:48.938Z,9.90
2018-09-20T02:47:17.160Z,10.50
2018-09-20T02:49:45.937Z,12.07
2018-09-20T02:52:14.151Z,11.77
2018-09-20T02:54:42.347Z,10.93
2018-09-20T02:57:10.558Z,9.83
2018-09-20T02:59:38.772Z,8.67
2018-09-20T03:02:07.478Z,9.10
2018-09-20T03:04:35.711Z,9.60
2018-09-20T03:07:03.903Z,9.80
2018-09-20T03:09:32.101Z,10.90
2018-09-20T03:12:00.297Z,10.00
2018-09-20T03:14:28.473Z,12.10
2018-09-20T03:16:56.746Z,10.27
2018-09-20T03:19:24.975Z,9.37
2018-09-20T03:21:53.188Z,9.57
2018-09-20T03:24:21.369Z,10.57
2018-09-20T03:26:49.619Z,8.97
2018-09-20T03:29:17.810Z,10.10
2018-09-20T03:31:46.017Z,9.80
2018-09-20T03:34:14.211Z,10.20
2018-09-20T03:36:42.599Z,9.17
2018-09-20T03:39:11.767Z,11.93
2018-09-20T03:41:40.308Z,9.53
2018-09-20T03:44:09.193Z,10.30
2018-09-20T03:46:37.434Z,9.90
2018-09-20T03:49:05.705Z,14.07
2018-09-20T03:51:33.931Z,10.13
2018-09-20T03:54:02.241Z,9.60
2018-09-20T03:56:30.493Z,11.93
2018-09-20T03:58:58.670Z,13.23
2018-09-20T04:01:26.903Z,11.90
2018-09-20T04:03:55.107Z,10.20
2018-09-20T04:06:23.399Z,8.00
2018-09-20T04:08:51.610Z,8.70
2018-09-20T04:11:19.833Z,9.50
2018-09-20T04:13:48.026Z,9.70
2018-09-20T04:16:16.330Z,9.60
2018-09-20T04:18:44.541Z,9.97
2018-09-20T04:21:15.920Z,9.43
2018-09-20T04:23:44.108Z,8.43
2018-09-20T04:26:12.339Z,12.73
2018-09-20T04:28:40.629Z,8.43
2018-09-20T04:31:08.890Z,10.50
2018-09-20T04:33:37.098Z,9.37
2018-09-20T04:36:05.697Z,10.17
2018-09-20T04:38:33.902Z,8.70
2018-09-20T04:41:02.119Z,10.27
2018-09-20T04:43:30.353Z,9.67
2018-09-20T04:45:58.542Z,9.60
2018-09-20T04:48:26.770Z,9.23
2018-09-20T04:50:54.974Z,11.70
2018-09-20T04:53:23.268Z,10.07
2018-09-20T04:55:51.526Z,12.23
2018-09-20T04:58:19.810Z,10.77
2018-09-20T05:00:48.049Z,16.20
2018-09-20T05:03:16.280Z,11.17
2018-09-20T05:08:19.145Z,10.03
2018-09-20T05:10:47.369Z,9.70
2018-09-20T05:13:16.207Z,9.40
2018-09-20T05:15:44.444Z,12.60
2018-09-20T05:18:12.659Z,11.30
2018-09-20T05:20:41.085Z,12.50
2018-09-20T05:23:09.327Z,10.20
2018-09-20T05:25:37.564Z,14.00
2018-09-20T05:28:05.831Z,12.20
2018-09-20T05:30:34.294Z,10.70
2018-09-20T05:33:02.517Z,12.63
2018-09-20T05:35:30.873Z,13.03
2018-09-20T05:37:59.129Z,11.87
2018-09-20T05:40:27.315Z,9.93
2018-09-20T05:42:55.552Z,11.93
2018-09-20T05:45:23.768Z,9.50
2018-09-20T05:47:52.110Z,10.03
2018-09-20T05:50:20.279Z,9.50
2018-09-20T05:52:48.482Z,9.73
2018-09-20T05:55:16.678Z,10.10
2018-09-20T05:57:44.879Z,9.40
2018-09-20T06:00:13.098Z,10.53
2018-09-20T06:02:41.413Z,9.60
2018-09-20T06:05:09.646Z,10.37
2018-09-20T06:07:37.853Z,8.90
2018-09-20T06:10:06.540Z,8.97
2018-09-20T06:12:34.735Z,9.10
2018-09-20T06:15:02.997Z,9.63
2018-09-20T06:17:31.203Z,9.23
2018-09-20T06:19:59.404Z,8.63
2018-09-20T06:22:27.664Z,9.07
2018-09-20T06:24:55.927Z,8.53
2018-09-20T06:27:24.137Z,9.97
2018-09-20T06:29:52.470Z,10.80
2018-09-20T06:32:20.692Z,11.50
2018-09-20T06:34:48.995Z,9.10
2018-09-20T06:37:17.349Z,8.50
2018-09-20T06:39:45.590Z,10.00
2018-09-20T06:42:13.850Z,9.33
2018-09-20T06:44:42.159Z,8.37
2018-09-20T06:47:10.458Z,9.43
2018-09-20T06:49:38.776Z,8.40
2018-09-20T06:52:07.101Z,11.90
2018-09-20T06:54:35.357Z,8.70
2018-09-20T06:57:03.605Z,7.83
2018-09-20T06:59:31.795Z,7.33
2018-09-20T07:02:00.057Z,7.50
2018-09-20T07:04:29.175Z,7.90
2018-09-20T07:06:57.425Z,7.53
2018-09-20T07:09:25.646Z,9.07
2018-09-20T07:11:53.870Z,7.53
2018-09-20T07:14:22.079Z,7.83
2018-09-20T07:16:50.324Z,7.47
2018-09-20T07:19:18.615Z,7.13
2018-09-20T07:21:46.788Z,7.80
2018-09-20T07:24:14.994Z,7.80
2018-09-20T07:26:43.228Z,7.00
2018-09-20T07:29:11.654Z,8.63
2018-09-20T07:31:39.894Z,6.20
2018-09-20T07:34:08.110Z,9.90
2018-09-20T07:36:36.334Z,8.60
2018-09-20T07:39:07.606Z,7.80
2018-09-20T07:41:35.829Z,10.83
2018-09-20T07:44:04.120Z,9.00
2018-09-20T07:46:32.394Z,6.80
2018-09-20T07:49:00.704Z,6.40
2018-09-20T07:51:28.926Z,6.10
2018-09-20T07:53:57.180Z,6.37
2018-09-20T07:56:25.424Z,6.23
2018-09-20T07:58:53.773Z,6.00
2018-09-20T08:01:22.083Z,6.83
2018-09-20T08:03:50.392Z,7.40
2018-09-20T08:06:18.794Z,6.40
2018-09-20T08:08:47.156Z,5.73
2018-09-20T08:11:15.378Z,6.33
2018-09-20T08:13:43.595Z,7.13
2018-09-20T08:16:11.912Z,7.23
2018-09-20T08:18:40.174Z,6.70
2018-09-20T08:21:08.841Z,6.37
2018-09-20T08:23:37.104Z,6.70
2018-09-20T08:26:05.334Z,7.00
2018-09-20T08:28:33.536Z,7.50
2018-09-20T08:31:01.791Z,6.07
2018-09-20T08:33:30.058Z,6.13
2018-09-20T08:35:58.309Z,6.33
2018-09-20T08:38:26.600Z,6.00
2018-09-20T08:40:54.794Z,5.50
2018-09-20T08:43:23.104Z,6.60
2018-09-20T08:45:51.311Z,6.20
2018-09-20T08:48:20.101Z,5.90
2018-09-20T08:50:48.399Z,5.40
2018-09-20T08:53:16.677Z,6.47
2018-09-20T08:55:44.886Z,6.30
2018-09-20T08:58:13.158Z,8.63
2018-09-20T09:00:41.486Z,5.70
2018-09-20T09:03:09.751Z,6.03
2018-09-20T09:05:38.001Z,10.03
2018-09-20T09:08:06.214Z,5.47
2018-09-20T09:10:34.427Z,7.43
2018-09-20T09:13:02.680Z,11.33
2018-09-20T09:15:30.946Z,5.70
2018-09-20T09:17:59.267Z,6.67
2018-09-20T09:20:27.521Z,5.97
2018-09-20T09:22:55.733Z,6.90
2018-09-20T09:25:24.011Z,5.43
2018-09-20T09:27:52.257Z,5.50
2018-09-20T09:30:20.692Z,5.57
2018-09-20T09:32:48.901Z,6.37
2018-09-20T09:35:17.180Z,5.90
2018-09-20T09:37:45.438Z,4.50
2018-09-20T09:40:13.755Z,5.00
2018-09-20T09:42:41.987Z,5.73
2018-09-20T09:45:10.197Z,4.10
2018-09-20T09:47:38.394Z,5.17
2018-09-20T09:50:06.653Z,5.10
2018-09-20T09:52:34.932Z,7.83
2018-09-20T09:55:03.773Z,4.47
2018-09-20T09:57:32.132Z,6.60
2018-09-20T10:00:00.370Z,5.00
2018-09-20T10:02:28.677Z,5.87
2018-09-20T10:04:57.817Z,5.00
2018-09-20T10:07:26.236Z,5.57
2018-09-20T10:09:54.390Z,5.77
2018-09-20T10:12:23.186Z,4.87
2018-09-20T10:14:51.506Z,5.20
2018-09-20T10:17:19.750Z,4.57
2018-09-20T10:19:47.991Z,5.43
2018-09-20T10:22:16.251Z,5.00
2018-09-20T10:24:44.457Z,6.30
2018-09-20T10:27:12.666Z,5.00
2018-09-20T10:29:40.910Z,4.70
2018-09-20T10:32:10.382Z,5.03
2018-09-20T10:34:38.689Z,5.17
2018-09-20T10:37:06.966Z,5.13
2018-09-20T10:39:35.541Z,5.47
2018-09-20T10:42:03.792Z,4.83
2018-09-20T10:44:32.238Z,4.10
2018-09-20T10:47:00.484Z,4.90
2018-09-20T10:49:28.796Z,4.70
2018-09-20T10:51:57.036Z,7.40
2018-09-20T10:54:25.252Z,5.30
2018-09-20T10:56:53.393Z,4.30
2018-09-20T10:59:21.598Z,5.23
2018-09-20T11:01:49.841Z,5.20
2018-09-20T11:04:18.073Z,4.90
2018-09-20T11:06:46.293Z,4.77
2018-09-20T11:09:14.519Z,4.53
2018-09-20T11:11:42.854Z,19.90
2018-09-20T11:14:11.584Z,8.40
2018-09-20T11:16:39.927Z,4.33
2018-09-20T11:19:08.179Z,4.90
2018-09-20T11:21:36.419Z,4.77
2018-09-20T11:24:04.885Z,5.13
2018-09-20T11:26:33.407Z,5.27
2018-09-20T11:29:01.590Z,3.80
2018-09-20T11:31:29.785Z,6.77
2018-09-20T11:33:58.044Z,5.30
2018-09-20T11:36:26.320Z,6.30
2018-09-20T11:38:54.492Z,6.77
2018-09-20T11:41:22.733Z,5.23
2018-09-20T11:43:50.953Z,5.20
2018-09-20T11:46:19.228Z,6.20
2018-09-20T11:48:47.612Z,5.67
2018-09-20T11:51:16.152Z,4.47
2018-09-20T11:53:44.396Z,4.77
2018-09-20T11:56:12.641Z,4.33
2018-09-20T11:58:40.886Z,4.70
2018-09-20T12:01:09.808Z,4.07
2018-09-20T12:03:38.044Z,6.47
2018-09-20T12:06:06.263Z,3.97
2018-09-20T12:08:34.530Z,4.40
2018-09-20T12:11:02.755Z,3.80
2018-09-20T12:13:31.114Z,4.10
2018-09-20T12:15:59.442Z,3.30
2018-09-20T12:18:27.662Z,3.60
2018-09-20T12:20:55.943Z,4.00
2018-09-20T12:23:24.178Z,4.93
2018-09-20T12:25:52.515Z,3.83
2018-09-20T12:28:20.738Z,5.07
2018-09-20T12:30:48.964Z,3.87
2018-09-20T12:33:17.245Z,4.43
2018-09-20T12:35:45.612Z,4.47
2018-09-20T12:38:14.198Z,4.20
2018-09-20T12:40:42.418Z,4.70
2018-09-20T12:43:10.792Z,4.60
2018-09-20T12:45:39.053Z,4.47
2018-09-20T12:48:07.326Z,9.57
2018-09-20T12:50:35.594Z,3.87
2018-09-20T12:53:03.920Z,3.80
2018-09-20T12:55:32.234Z,4.47
2018-09-20T12:58:00.535Z,4.07
2018-09-20T13:00:28.835Z,3.73
2018-09-20T13:02:57.050Z,3.70
2018-09-20T13:05:25.281Z,4.33
2018-09-20T13:07:53.564Z,3.73
2018-09-20T13:10:21.851Z,4.40
2018-09-20T13:12:50.113Z,3.97
2018-09-20T13:15:18.358Z,4.07
2018-09-20T13:17:46.753Z,4.30
2018-09-20T13:20:15.051Z,4.73
2018-09-20T13:22:43.214Z,3.10
2018-09-20T13:25:11.460Z,4.10
2018-09-20T13:27:39.702Z,3.60
2018-09-20T13:30:08.031Z,5.20
2018-09-20T13:32:36.286Z,3.83
2018-09-20T13:35:04.598Z,4.30
2018-09-20T13:37:32.850Z,3.53
2018-09-20T13:40:01.157Z,3.30
2018-09-20T13:42:29.389Z,3.37
2018-09-20T13:44:57.626Z,5.67
2018-09-20T13:47:25.940Z,4.70
2018-09-20T13:49:54.249Z,5.50
2018-09-20T13:52:22.540Z,3.73
2018-09-20T13:54:50.774Z,3.40
2018-09-20T13:57:19.067Z,4.03
2018-09-20T13:59:47.622Z,3.77
2018-09-20T14:02:16.034Z,5.40
2018-09-20T14:04:44.292Z,4.60
2018-09-20T14:07:12.652Z,5.60
2018-09-20T14:09:41.066Z,3.80
2018-09-20T14:12:09.379Z,5.00
2018-09-20T14:14:37.617Z,3.30
2018-09-20T14:17:05.860Z,4.60
2018-09-20T14:19:34.088Z,4.60
2018-09-20T14:22:02.284Z,3.40
2018-09-20T14:24:30.505Z,3.80
2018-09-20T14:26:58.782Z,4.03
2018-09-20T14:29:27.180Z,3.80
2018-09-20T14:31:55.475Z,3.43
2018-09-20T14:34:23.695Z,3.57
2018-09-20T14:36:52.078Z,4.37
2018-09-20T14:39:20.299Z,4.43
2018-09-20T14:41:48.598Z,5.00
2018-09-20T14:44:16.851Z,5.30
2018-09-20T14:46:45.151Z,4.10
2018-09-20T14:49:13.378Z,5.47
2018-09-20T14:51:41.777Z,5.07
2018-09-20T14:54:10.022Z,7.00
2018-09-20T14:56:38.284Z,3.73
2018-09-20T14:59:06.586Z,3.70
2018-09-20T15:01:34.786Z,4.27
2018-09-20T15:04:03.058Z,4.20
2018-09-20T15:06:31.312Z,4.40
2018-09-20T15:08:59.873Z,3.97
2018-09-20T15:11:28.144Z,3.57
2018-09-20T15:13:56.378Z,3.80
2018-09-20T15:16:24.599Z,3.20
2018-09-20T15:18:52.914Z,4.00
2018-09-20T15:21:21.153Z,4.70
2018-09-20T15:23:49.493Z,4.00
2018-09-20T15:26:17.702Z,6.17
2018-09-20T15:28:46.301Z,5.57
2018-09-20T15:31:14.616Z,3.97
2018-09-20T15:34:29.501Z,3.60
2018-09-20T15:36:57.771Z,3.80
2018-09-20T15:39:26.012Z,4.30
2018-09-20T15:41:54.396Z,4.10
2018-09-20T15:44:22.666Z,4.17
2018-09-20T15:46:50.917Z,3.93
2018-09-20T15:49:19.255Z,4.40
2018-09-20T15:51:47.491Z,3.63
2018-09-20T15:54:15.735Z,3.80
2018-09-20T15:56:43.993Z,4.70
2018-09-20T15:59:12.308Z,3.40
2018-09-20T16:01:40.566Z,3.67
2018-09-20T16:04:08.820Z,3.80
2018-09-20T16:06:37.729Z,4.10
2018-09-20T16:09:08.268Z,3.97
2018-09-20T16:11:36.485Z,3.50
2018-09-20T16:14:04.735Z,3.40
2018-09-20T16:16:33.093Z,4.83
2018-09-20T16:19:01.537Z,4.20
2018-09-20T16:21:29.774Z,3.23
2018-09-20T16:23:58.020Z,4.10
2018-09-20T16:26:26.470Z,4.10
2018-09-20T16:29:08.664Z,3.80
2018-09-20T16:31:48.883Z,3.90
2018-09-20T16:35:04.203Z,4.97
2018-09-20T16:38:47.197Z,4.30
2018-09-20T16:41:17.422Z,4.00
2018-09-20T16:43:45.672Z,4.00
2018-09-20T16:46:14.038Z,4.90
2018-09-20T16:48:42.242Z,5.00
2018-09-20T16:51:10.521Z,4.73
2018-09-20T16:53:38.764Z,5.60
2018-09-20T16:56:07.658Z,7.40
2018-09-20T16:58:35.961Z,9.60
2018-09-20T17:01:04.205Z,7.03
2018-09-20T17:03:32.520Z,4.50
2018-09-20T17:06:00.796Z,4.73
2018-09-20T17:08:29.088Z,4.70
2018-09-20T17:10:57.341Z,5.60
2018-09-20T17:13:25.635Z,4.77
2018-09-20T17:15:54.034Z,7.30
2018-09-20T17:18:22.368Z,4.93
2018-09-20T17:20:50.605Z,6.00
2018-09-20T17:23:18.933Z,5.33
2018-09-20T17:25:47.154Z,5.10
2018-09-20T17:28:15.437Z,7.20
2018-09-20T17:30:43.698Z,8.20
2018-09-20T17:33:12.010Z,8.17
2018-09-20T17:35:40.898Z,6.20
2018-09-20T17:38:09.735Z,7.83
2018-09-20T17:40:39.205Z,5.70
2018-09-20T17:43:10.054Z,5.33
2018-09-20T17:45:45.178Z,5.63
2018-09-20T17:48:13.676Z,6.80
2018-09-20T17:50:42.150Z,10.20
2018-09-20T17:53:10.827Z,9.90
2018-09-20T17:55:39.390Z,8.97
2018-09-20T17:58:08.039Z,8.83
2018-09-20T18:00:36.333Z,8.43
2018-09-20T18:03:04.569Z,6.93
2018-09-20T18:05:32.845Z,7.93
2018-09-20T18:08:01.722Z,8.07
2018-09-20T18:10:30.132Z,8.03
2018-09-20T18:12:58.344Z,8.00
2018-09-20T18:15:26.631Z,8.50
2018-09-20T18:17:55.000Z,6.87
2018-09-20T18:20:23.246Z,6.80
2018-09-20T18:22:51.493Z,10.77
2018-09-20T18:25:19.694Z,8.00
2018-09-20T18:27:47.972Z,8.10
2018-09-20T18:30:16.318Z,8.20
2018-09-20T18:32:44.579Z,6.50
2018-09-20T18:35:12.810Z,6.33
2018-09-20T18:37:41.641Z,6.57
2018-09-20T18:42:44.631Z,5.47
2018-09-20T18:45:12.898Z,6.60
2018-09-20T18:47:41.196Z,6.57
2018-09-20T18:50:09.539Z,6.93
2018-09-20T18:52:37.910Z,8.07
2018-09-20T18:55:06.751Z,9.07
2018-09-20T18:57:34.999Z,9.93
2018-09-20T19:00:03.458Z,10.07
2018-09-20T19:02:31.692Z,9.40
2018-09-20T19:04:59.970Z,8.77
2018-09-20T19:07:28.280Z,7.10
2018-09-20T19:09:56.625Z,7.90
2018-09-20T19:12:24.840Z,7.93
2018-09-20T19:14:53.090Z,8.67
2018-09-20T19:17:21.369Z,8.17
2018-09-20T19:19:50.206Z,10.60
2018-09-20T19:22:18.492Z,7.80
2018-09-20T19:24:46.952Z,5.97
2018-09-20T19:27:15.172Z,8.30
2018-09-20T19:29:43.760Z,6.50
2018-09-20T19:32:12.028Z,7.27
2018-09-20T19:34:40.355Z,8.73
2018-09-20T19:37:08.589Z,9.37
2018-09-20T19:39:36.933Z,8.87
2018-09-20T19:42:05.218Z,9.07
2018-09-20T19:44:33.485Z,6.47
2018-09-20T19:47:01.725Z,7.20
2018-09-20T19:49:29.985Z,6.30
2018-09-20T19:51:58.580Z,8.10
2018-09-20T19:54:26.793Z,9.80
2018-09-20T19:56:56.220Z,10.03
2018-09-20T19:59:24.463Z,9.57
2018-09-20T20:01:52.993Z,10.87
2018-09-20T20:04:21.453Z,11.07
2018-09-20T20:06:49.798Z,8.43
2018-09-20T20:09:18.086Z,7.87
2018-09-20T20:11:47.156Z,8.50
2018-09-20T20:14:15.549Z,7.50
2018-09-20T20:16:43.820Z,31.80
2018-09-20T20:19:12.187Z,29.63
2018-09-20T20:21:40.434Z,14.93
2018-09-20T20:24:08.706Z,12.57
2018-09-20T20:26:37.435Z,8.60
2018-09-20T20:29:05.753Z,46.97
2018-09-20T20:31:34.329Z,33.03
2018-09-20T20:34:05.176Z,20.70
2018-09-20T20:36:33.432Z,10.03
2018-09-20T20:39:01.666Z,10.63
2018-09-20T20:41:29.945Z,8.20
2018-09-20T20:43:58.750Z,9.40
2018-09-20T20:46:27.127Z,10.17
2018-09-20T20:48:55.405Z,9.10
2018-09-20T20:51:23.593Z,8.83
2018-09-20T20:53:51.785Z,10.10
2018-09-20T20:56:20.049Z,8.60
2018-09-20T20:58:49.389Z,11.70
2018-09-20T21:01:20.844Z,10.10
2018-09-20T21:03:52.537Z,10.67
2018-09-20T21:06:20.771Z,9.57
2018-09-20T21:08:48.964Z,8.33
2018-09-20T21:11:17.293Z,9.50
2018-09-20T21:13:45.640Z,12.80
2018-09-20T21:16:13.864Z,16.27
2018-09-20T21:18:42.235Z,12.60
2018-09-20T21:21:10.488Z,11.50
2018-09-20T21:23:38.750Z,9.53
2018-09-20T21:26:07.044Z,13.40
2018-09-20T21:28:35.263Z,9.77
2018-09-20T21:31:03.474Z,9.73
2018-09-20T21:33:31.889Z,9.50
2018-09-20T21:36:00.198Z,12.00
2018-09-20T21:38:29.367Z,10.03
2018-09-20T21:40:57.661Z,9.57
2018-09-20T21:43:25.894Z,10.27
2018-09-20T21:45:55.235Z,10.07
2018-09-20T21:48:23.457Z,11.70
2018-09-20T21:50:52.050Z,11.70
2018-09-20T21:53:20.454Z,10.57
2018-09-20T21:55:48.721Z,10.60
2018-09-20T21:58:17.194Z,9.50
2018-09-20T22:00:46.097Z,9.10
2018-09-20T22:03:14.623Z,11.47
2018-09-20T22:05:42.860Z,12.73
2018-09-20T22:08:11.317Z,13.20
2018-09-20T22:10:39.598Z,10.13
2018-09-20T22:13:08.407Z,11.30
2018-09-20T22:15:36.599Z,9.30
2018-09-20T22:18:04.943Z,9.60
2018-09-20T22:20:33.218Z,8.90
2018-09-20T22:23:02.491Z,9.17
2018-09-20T22:25:30.812Z,10.40
2018-09-20T22:27:59.281Z,13.13
2018-09-20T22:30:27.578Z,16.23
2018-09-20T22:32:55.853Z,9.67
2018-09-20T22:35:24.114Z,13.17
2018-09-20T22:37:52.373Z,12.63
2018-09-20T22:40:20.666Z,8.10
2018-09-20T22:42:48.912Z,9.30
2018-09-20T22:45:17.134Z,7.77
2018-09-20T22:47:45.421Z,8.97
2018-09-20T22:50:13.810Z,10.10
2018-09-20T22:52:42.050Z,10.60
2018-09-20T22:55:10.297Z,12.30
2018-09-20T22:57:38.530Z,10.73
2018-09-20T23:00:06.775Z,10.00
2018-09-20T23:02:35.576Z,10.33
2018-09-20T23:05:03.817Z,10.20
2018-09-20T23:07:32.034Z,9.17
2018-09-20T23:10:00.288Z,9.00
2018-09-20T23:12:28.508Z,11.63
2018-09-20T23:14:56.816Z,10.90
2018-09-20T23:17:25.037Z,13.40
2018-09-20T23:19:53.275Z,10.63
2018-09-20T23:22:21.486Z,11.50
2018-09-20T23:24:49.725Z,9.87
2018-09-20T23:27:18.103Z,10.83
2018-09-20T23:29:46.380Z,11.10
2018-09-20T23:32:14.656Z,10.70
2018-09-20T23:34:42.954Z,10.53
2018-09-20T23:37:11.190Z,9.67
2018-09-20T23:39:39.415Z,12.20
2018-09-20T23:42:07.674Z,9.87
2018-09-20T23:44:35.941Z,10.13
2018-09-20T23:47:04.330Z,12.23
2018-09-20T23:49:32.590Z,10.03
2018-09-20T23:52:00.778Z,11.60
2018-09-20T23:54:29.013Z,10.50
2018-09-20T23:56:57.230Z,8.93
2018-09-20T23:59:25.482Z,12.00
